• Join FlightAware (Why Join?)
  • Login
  • US Flag 
11:51PM EST


 

Airport Tracker/Info


-or-


 

Live Flight TrackerFlight Track Log ✈ EJA831 ✈ 26-07-2013 ✈ KMDW - KPDK

Flight Track Log - Related Links

Times and Time Zones

All times are in EDT time to prevent confusion due to time zone crossing. See the EJA831 flight status page for this flight to view local times or setup timezone preferences in your user account.

Time Position Orientation Groundspeed Altitude Reporting Facility
EDT Latitude Longitude Course Direction KTS MPH feet Rate Location/Type
02:55PM 41.7500 -87.8000 160° South 185 213 2,900  Level Chicago TRACON
02:56PM 41.7233 -87.8328 223° Southwest 180 207 3,200 2,100 Climbing Chicago Center
02:57PM 41.6742 -87.8519 196° South 203 234 6,500 3,240 Climbing Chicago Center
02:58PM 41.6061 -87.8186 160° South 260 299 9,900 3,060 Climbing Chicago Center
02:59PM 41.5303 -87.7806 159° South 290 334 12,900 2,820 Climbing Chicago Center
03:00PM 41.2972 -87.5146 160° South  Level Estimated
03:00PM 41.4489 -87.7392 159° South 309 356 15,800  Level Chicago Center
03:01PM 41.3414 -87.7258 175° South 326 375 18,800 2,580 Climbing Chicago Center
03:02PM 41.2481 -87.7261 180° South 334 384 21,200 2,220 Climbing Chicago Center
03:03PM 41.1519 -87.7183 177° South 343 395 23,500 1,620 Climbing Chicago Center
03:04PM 41.0556 -87.6878 167° South 354 407 24,600 1,020 Climbing Chicago Center
03:05PM 40.9572 -87.6542 166° South 365 420 25,700 900 Climbing Chicago Center
03:06PM 40.8386 -87.6172 167° South 365 420 26,500 960 Climbing Chicago Center
03:07PM 40.7356 -87.5839 166° South 378 435 27,800 1,260 Climbing Chicago Center
03:08PM 40.6292 -87.5503 167° South 389 448 29,200 1,620 Climbing Chicago Center
03:09PM 40.5211 -87.5169 167° South 397 457 31,200 2,100 Climbing Chicago Center
03:10PM 40.4192 -87.4864 167° South 386 444 33,600 1,500 Climbing Chicago Center
03:11PM 40.3164 -87.4511 165° South 376 433 34,300 660 Climbing Chicago Center
03:12PM 40.2086 -87.4217 168° South 393 452 35,000 360 Climbing Chicago Center
03:13PM 40.1175 -87.3922 166° South 409 471 35,000  Level Indianapolis Center
03:14PM 39.9806 -87.3492 166° South 423 487 35,000  Level Indianapolis Center
03:15PM 39.8650 -87.3136 167° South 427 491 35,000  Level Indianapolis Center
03:16PM 39.7489 -87.2775 167° South 431 496 35,000  Level Indianapolis Center
03:17PM 39.6350 -87.2283 162° South 436 502 35,000  Level Indianapolis Center
03:18PM 39.5217 -87.1744 160° South 437 503 35,000  Level Indianapolis Center
03:19PM 39.3856 -87.1092 160° South 439 505 35,000  Level Indianapolis Center
03:20PM 39.2728 -87.0569 160° South 436 502 35,000  Level Indianapolis Center
03:21PM 39.1589 -87.0047 160° South 437 503 35,000  Level Indianapolis Center
03:22PM 39.0464 -86.9511 160° South 429 494 35,000  Level Indianapolis Center
03:23PM 38.9397 -86.9017 160° South 410 472 35,000  Level Indianapolis Center
03:24PM 38.8328 -86.8511 160° South 408 470 35,000  Level Indianapolis Center
03:25PM 38.7050 -86.7917 160° South 404 465 35,000  Level Indianapolis Center
03:26PM 38.5989 -86.7431 160° South 400 460 35,000  Level Indianapolis Center
03:27PM 38.4908 -86.6919 160° South 407 468 35,000  Level Indianapolis Center
03:28PM 38.3775 -86.6406 160° South 422 486 35,000  Level Indianapolis Center
03:29PM 38.2606 -86.5878 160° South 436 502 35,000  Level Indianapolis Center
03:30PM 38.1447 -86.5353 160° South 437 503 35,000  Level Indianapolis Center
03:32PM 38.0275 -86.4825 160° South 442 509 35,000  Level Indianapolis Center
03:33PM 37.9111 -86.4300 160° South 441 507 35,000  Level Indianapolis Center
03:34PM 37.7883 -86.3758 161° South 441 507 35,000  Level Indianapolis Center
03:35PM 37.6711 -86.3222 160° South 442 509 35,000  Level Indianapolis Center
03:36PM 37.5381 -86.2636 161° South 426 490 35,000  Level Indianapolis Center
03:37PM 37.4250 -86.2136 161° South 426 490 35,000  Level Indianapolis Center
03:38PM 37.3083 -86.1617 160° South 438 504 35,000  Level Indianapolis Center
03:39PM 37.1917 -86.1100 161° South 439 505 35,000  Level Indianapolis Center
03:40PM 37.0725 -86.0575 161° South 447 514 35,000  Level Indianapolis Center
03:41PM 36.9539 -86.0050 161° South 449 517 35,000  Level Indianapolis Center
03:42PM 36.8339 -85.9519 161° South 451 519 35,000  Level Indianapolis Center
03:43PM 36.7139 -85.8989 160° South 453 521 35,000  Level Indianapolis Center
03:44PM 36.5936 -85.8464 161° South 452 520 35,000  Level Indianapolis Center
03:45PM 36.4750 -85.7961 161° South 442 509 35,000 -900 Level Indianapolis Center
03:46PM 36.3350 -85.7353 161° South 444 511 33,200 -1,020 Descending Indianapolis Center
03:47PM 36.2222 -85.6872 161° South 434 499 33,000 -120 Descending Indianapolis Center
03:48PM 36.0628 -85.6211 161° South 433 498 33,000  Level Atlanta Center
03:49PM 35.9467 -85.5725 161° South 438 504 33,000  Level Atlanta Center
03:50PM 35.8344 -85.5217 160° South 443 510 33,000 -840 Level Atlanta Center
03:51PM 35.7203 -85.4764 162° South 443 510 31,400 -1,500 Descending Atlanta Center
03:52PM 35.6083 -85.4258 160° South 438 504 30,000 -1,200 Descending Atlanta Center
03:53PM 35.4939 -85.3806 162° South 438 504 29,000 -1,020 Descending Atlanta Center
03:54PM 35.3797 -85.3303 160° South 438 504 28,000 -1,260 Descending Atlanta Center
03:55PM 35.2656 -85.2825 161° South 443 510 26,500 -1,680 Descending Atlanta Center
03:56PM 35.1492 -85.2353 162° South 443 510 24,700 -1,440 Descending Atlanta Center
03:57PM 35.0411 -85.1881 160° South 437 503 23,700 -1,560 Descending Atlanta Center
03:58PM 34.9308 -85.1536 166° South 426 490 21,600 -2,160 Descending Atlanta Center
03:59PM 34.8225 -85.1192 165° South 410 472 19,400 -2,400 Descending Atlanta Center
04:00PM 34.7250 -85.0775 161° South 393 452 16,800 -2,700 Descending Atlanta Center
04:01PM 34.6272 -85.0358 161° South 383 441 14,000 -2,760 Descending Atlanta Center
04:02PM 34.5356 -84.9969 161° South 360 414 11,300 -1,500 Descending Atlanta Center
04:03PM 34.4483 -84.9633 162° South 341 392 11,000 -720 Descending Atlanta Center
04:04PM 34.3631 -84.9294 162° South 330 380 9,900 -1,320 Descending Atlanta Center
04:05PM 34.2922 -84.9011 162° South 303 349 8,400 -960 Descending Atlanta Center
04:06PM 34.2233 -84.8753 163° South 263 303 8,000 -240 Descending Atlanta Center
04:07PM 34.1550 -84.8319 152° Southeast 268 308 8,000 -420 Level Atlanta Center
04:09PM 34.1333 -84.6833 100° East 273 314 6,900 -1,080 Descending Atlanta TRACON
04:10PM 34.1667 -84.6000 64° Northeast 272 313 5,000 -960 Descending Atlanta TRACON
04:11PM 34.2000 -84.5167 64° Northeast 280 322 5,000  Level Atlanta TRACON
04:12PM 34.2333 -84.4333 64° Northeast 281 323 5,000  Level Atlanta TRACON
04:13PM 34.2531 -84.3378 76° East 272 313 5,000 -600 Level Atlanta Center
04:14PM 34.1947 -84.2900 146° Southeast 223 257 3,700 -720 Descending Atlanta Center
04:16PM 34.0833 -84.2333 157° South 223 257 3,000 -300 Descending Atlanta TRACON
04:17PM 34.0333 -84.2333 180° South 210 242 3,000  Level Atlanta TRACON
04:18PM 33.9833 -84.2500 195° South 189 217 3,000 -540 Level Atlanta TRACON
04:20PM 33.8756 -84.3020 202° Southwest  Level Estimated
04:20PM 33.9000 -84.2833 202° Southwest 125 144 1,500  Level Atlanta TRACON
04:22PM 33.8756 -84.3020 212° Southwest  Level Estimated
04:29PM 33.8756 -84.3020 301° West  Level Estimated
04:30PM 33.8756 -84.3020 301° West  Level Estimated